Hillandale, Maryland
Current Conditions -  °F | °C
As of 7:20 AM on Monday 20 Oct 2014 (Local Time) from KCGS Reporting Station
Clear Clear  
Wind Chill:   Ceiling: Unl
Heat Index:   Visibility: 10mi
Dew Point:   Wind: 0mph
Humidity: 100%   Direction: NA
Pressure: 30.12"   Gusts: NA
Location:  39.0169°N, 76.9848°W
Report Text: KCGS 201120Z AUTO 00000KT 10SM CLR 03/03 A3012 RMK AO1
Loading
Personal Weather Stations






























Interactive Weather Map
Tropical Storm Tracking
New forecast layout! Learn more

10-Day Weather Forecast

Advertisements
Track Severe Weather on mobile